Time;durP1;ratioP1;P1;durP2;ratioP2;P2;SDS_P1;SDS_P2;PMS_P1;PMS_P2;Temp;Humidity;BMP_temperature;BMP_pressure;BME280_temperature;BME280_humidity;BME280_pressure;Samples;Min_cycle;Max_cycle;Signal;HPM_P1;HPM_P2
2023/12/25 00:00:04;;;;;;;;;;;8.40;99.90;;;;;;5045932;28;19935;-88
2023/12/25 00:02:31;;;;;;;;;;;8.30;99.90;;;;;;5034591;28;19909;-91
2023/12/25 00:04:56;;;;;;;;;;;8.30;99.90;;;;;;5059648;28;19920;-88
2023/12/25 00:07:22;;;;;;;;;;;8.30;99.90;;;;;;5059945;28;20648;-86
2023/12/25 00:09:53;;;;;;;;;;;8.30;99.90;;;;;;5044121;28;20426;-89
2023/12/25 00:12:20;;;;;;;;;;;8.20;99.90;;;;;;5042007;28;19917;-88
2023/12/25 00:14:46;;;;;;;;;;;8.20;99.90;;;;;;5042866;28;20490;-87
2023/12/25 00:17:13;;;;;;;;;;;8.30;99.90;;;;;;5059575;28;19917;-85
2023/12/25 00:19:38;;;;;;;;;;;8.30;99.90;;;;;;5040896;28;20334;-87
2023/12/25 00:22:04;;;;;;;;;;;8.20;99.90;;;;;;5035230;28;19912;-89
2023/12/25 00:24:29;;;;;;;;;;;8.20;99.90;;;;;;5043253;28;19920;-90
2023/12/25 00:26:55;;;;;;;;;;;8.20;99.90;;;;;;5043561;28;19951;-88
2023/12/25 00:29:20;;;;;;;;;;;8.10;99.90;;;;;;5032024;28;19912;-89
2023/12/25 00:31:47;;;;;;;;;;;8.00;99.90;;;;;;5035397;28;19913;-90
2023/12/25 00:34:13;;;;;;;;;;;8.10;99.90;;;;;;5059809;28;19920;-87
2023/12/25 00:36:38;;;;;;;;;;;8.20;99.90;;;;;;5044074;28;19916;-87
2023/12/25 00:39:04;;;;;;;;;;;8.20;99.90;;;;;;5032715;28;19912;-85
2023/12/25 00:41:30;;;;;;;;;;;8.20;99.90;;;;;;5044174;28;19913;-84
2023/12/25 00:43:56;;;;;;;;;;;8.10;99.90;;;;;;5058504;28;19913;-84
2023/12/25 00:46:22;;;;;;;;;;;8.20;99.90;;;;;;5033604;28;19974;-85
2023/12/25 00:48:47;;;;;;;;;;;8.20;99.90;;;;;;5035338;28;19920;-88
2023/12/25 00:51:13;;;;;;;;;;;8.10;99.90;;;;;;5035877;28;20620;-91
2023/12/25 00:53:38;;;;;;;;;;;8.10;99.90;;;;;;5035803;28;19926;-91
2023/12/25 00:56:05;;;;;;;;;;;8.10;99.90;;;;;;5047025;28;19972;-93
2023/12/25 00:58:30;;;;;;;;;;;8.00;99.90;;;;;;5032556;28;20383;-91
2023/12/25 01:00:56;;;;;;;;;;;8.00;99.90;;;;;;5050629;28;19913;-94
2023/12/25 01:03:22;;;;;;;;;;;8.00;99.90;;;;;;5041208;28;19932;-93
2023/12/25 01:05:47;;;;;;;;;;;8.00;99.90;;;;;;5043374;28;20015;-95
2023/12/25 01:08:13;;;;;;;;;;;7.90;99.90;;;;;;5038701;28;20295;-94
2023/12/25 01:10:38;;;;;;;;;;;7.90;99.90;;;;;;5039925;28;19916;-94
2023/12/25 01:13:04;;;;;;;;;;;8.00;99.90;;;;;;5042009;28;19923;-96
2023/12/25 01:15:29;;;;;;;;;;;8.10;99.90;;;;;;5040673;28;19920;-92
2023/12/25 01:17:55;;;;;;;;;;;8.10;99.90;;;;;;5041218;28;20018;-94
2023/12/25 01:20:20;;;;;;;;;;;8.00;99.90;;;;;;5037318;28;20306;-95
2023/12/25 01:22:46;;;;;;;;;;;8.00;99.90;;;;;;5042774;28;19916;-94
2023/12/25 01:25:12;;;;;;;;;;;7.90;99.90;;;;;;5041365;28;20003;-95
2023/12/25 01:27:41;;;;;;;;;;;8.00;99.90;;;;;;5043036;28;19969;-94
2023/12/25 01:30:08;;;;;;;;;;;8.00;99.90;;;;;;5041467;28;19913;-95
2023/12/25 01:32:33;;;;;;;;;;;8.00;99.90;;;;;;5053291;28;19916;-95
2023/12/25 01:34:59;;;;;;;;;;;7.90;99.90;;;;;;5041175;28;19970;-95
2023/12/25 01:37:24;;;;;;;;;;;7.80;99.90;;;;;;5042007;28;19915;-96
2023/12/25 01:39:50;;;;;;;;;;;7.80;99.90;;;;;;5042420;28;20402;-95
2023/12/25 01:42:15;;;;;;;;;;;7.90;99.90;;;;;;5039948;28;20045;-95
2023/12/25 01:44:41;;;;;;;;;;;7.90;99.90;;;;;;5039849;28;20137;-95
2023/12/25 01:47:06;;;;;;;;;;;7.80;99.90;;;;;;5039530;28;19924;-93
2023/12/25 01:49:32;;;;;;;;;;;7.80;99.90;;;;;;5040784;28;20000;-93
2023/12/25 01:51:57;;;;;;;;;;;7.80;99.90;;;;;;5049831;28;20425;-95
2023/12/25 01:54:23;;;;;;;;;;;7.80;99.90;;;;;;5035386;28;19960;-94
2023/12/25 01:56:49;;;;;;;;;;;7.80;99.90;;;;;;5040478;28;19916;-95
2023/12/25 01:59:15;;;;;;;;;;;7.70;99.90;;;;;;5040175;28;20134;-96
2023/12/25 02:01:40;;;;;;;;;;;7.80;99.90;;;;;;5042974;28;20030;-96
2023/12/25 02:04:06;;;;;;;;;;;7.80;99.90;;;;;;5041438;28;20046;-96
2023/12/25 02:06:32;;;;;;;;;;;7.80;99.90;;;;;;5046979;28;19955;-96
2023/12/25 02:08:59;;;;;;;;;;;7.70;99.90;;;;;;5048635;28;19908;-96
2023/12/25 02:11:25;;;;;;;;;;;7.70;99.90;;;;;;5040745;28;20459;-88
2023/12/25 02:13:51;;;;;;;;;;;7.70;99.90;;;;;;5037878;28;20058;-93
2023/12/25 02:16:17;;;;;;;;;;;7.70;99.90;;;;;;5041093;28;19912;-92
2023/12/25 02:18:42;;;;;;;;;;;7.70;99.90;;;;;;5041270;28;19935;-93
2023/12/25 02:21:08;;;;;;;;;;;7.70;99.90;;;;;;5042810;28;19922;-95
2023/12/25 02:23:36;;;;;;;;;;;7.60;99.90;;;;;;5041761;28;19958;-93
2023/12/25 02:26:01;;;;;;;;;;;7.60;99.90;;;;;;5045992;28;19928;-93
2023/12/25 02:28:27;;;;;;;;;;;7.60;99.90;;;;;;5054336;28;19935;-94
2023/12/25 02:30:53;;;;;;;;;;;7.60;99.90;;;;;;5046406;28;19909;-92
2023/12/25 02:33:18;;;;;;;;;;;7.50;99.90;;;;;;5043649;28;19936;-93
2023/12/25 02:35:44;;;;;;;;;;;7.50;99.90;;;;;;5070007;28;20633;-93
2023/12/25 02:38:09;;;;;;;;;;;7.60;99.90;;;;;;5045220;28;19915;-93
2023/12/25 02:40:35;;;;;;;;;;;7.50;99.90;;;;;;5042849;28;20000;-92
2023/12/25 02:43:01;;;;;;;;;;;7.60;99.90;;;;;;5042815;28;19908;-94
2023/12/25 02:45:26;;;;;;;;;;;7.50;99.90;;;;;;5041661;28;20035;-93
2023/12/25 02:47:52;;;;;;;;;;;7.60;99.90;;;;;;5043504;28;19916;-95
2023/12/25 02:50:18;;;;;;;;;;;7.50;99.90;;;;;;5044229;28;20361;-90
2023/12/25 02:52:43;;;;;;;;;;;7.50;99.90;;;;;;5038636;28;19943;-96
2023/12/25 02:55:09;;;;;;;;;;;7.60;99.90;;;;;;5050606;28;19986;-96
2023/12/25 02:57:34;;;;;;;;;;;7.50;99.90;;;;;;5051793;28;19923;-96
2023/12/25 03:00:00;;;;;;;;;;;7.50;99.90;;;;;;5053893;28;19928;-96
2023/12/25 03:02:27;;;;;;;;;;;7.40;99.90;;;;;;5048976;23;19931;-89
2023/12/25 03:04:53;;;;;;;;;;;7.40;99.90;;;;;;5034187;28;19913;-93
2023/12/25 03:07:19;;;;;;;;;;;7.40;99.90;;;;;;5037389;28;19917;-92
2023/12/25 03:09:44;;;;;;;;;;;7.40;99.90;;;;;;5032796;28;20403;-92
2023/12/25 03:12:10;;;;;;;;;;;7.30;99.90;;;;;;5033567;28;20388;-92
2023/12/25 03:14:35;;;;;;;;;;;7.40;99.90;;;;;;5032793;28;20680;-93
2023/12/25 03:17:01;;;;;;;;;;;7.30;99.90;;;;;;5033169;28;19921;-91
2023/12/25 03:19:26;;;;;;;;;;;7.30;99.90;;;;;;5031727;28;19913;-92
2023/12/25 03:21:52;;;;;;;;;;;7.30;99.90;;;;;;5033904;28;20021;-93
2023/12/25 03:24:17;;;;;;;;;;;7.30;99.90;;;;;;5033582;28;19919;-93
2023/12/25 03:26:43;;;;;;;;;;;7.30;99.90;;;;;;5029527;28;19913;-93
2023/12/25 03:29:08;;;;;;;;;;;7.30;99.90;;;;;;5032562;28;19913;-92
2023/12/25 03:31:34;;;;;;;;;;;7.30;99.90;;;;;;5028266;28;19913;-92
2023/12/25 03:34:00;;;;;;;;;;;7.30;99.90;;;;;;5028969;28;19917;-93
2023/12/25 03:36:25;;;;;;;;;;;7.30;99.90;;;;;;5028394;28;20563;-92
2023/12/25 03:38:51;;;;;;;;;;;7.40;99.90;;;;;;5027517;28;19996;-93
2023/12/25 03:41:17;;;;;;;;;;;7.30;99.90;;;;;;5029826;28;19924;-91
2023/12/25 03:43:42;;;;;;;;;;;7.20;99.90;;;;;;5030439;28;19924;-88
2023/12/25 03:46:08;;;;;;;;;;;7.20;99.90;;;;;;5031869;28;19946;-89
2023/12/25 03:48:33;;;;;;;;;;;7.40;99.90;;;;;;5030853;28;19916;-90
2023/12/25 03:50:59;;;;;;;;;;;7.30;99.90;;;;;;5030707;28;19924;-91
2023/12/25 03:53:25;;;;;;;;;;;7.30;99.90;;;;;;5032282;28;19978;-91
2023/12/25 03:55:51;;;;;;;;;;;7.00;99.90;;;;;;5031486;28;20303;-90
2023/12/25 03:58:16;;;;;;;;;;;7.10;99.90;;;;;;5031162;28;19917;-91
2023/12/25 04:00:42;;;;;;;;;;;7.10;99.90;;;;;;5031592;28;19920;-90
2023/12/25 04:03:07;;;;;;;;;;;7.00;99.90;;;;;;5030255;28;20000;-90
2023/12/25 04:05:33;;;;;;;;;;;7.00;99.90;;;;;;5027116;28;19913;-91
2023/12/25 04:07:58;;;;;;;;;;;7.00;99.90;;;;;;5029662;28;19908;-94
2023/12/25 04:10:24;;;;;;;;;;;7.00;99.90;;;;;;5033439;28;19916;-92
2023/12/25 04:12:50;;;;;;;;;;;7.10;99.90;;;;;;5045839;28;19913;-89
2023/12/25 04:15:15;;;;;;;;;;;7.10;99.90;;;;;;5031883;28;19984;-90
2023/12/25 04:17:41;;;;;;;;;;;7.10;99.90;;;;;;5031295;28;19917;-90
2023/12/25 04:20:07;;;;;;;;;;;7.10;99.90;;;;;;5033301;28;19920;-91
2023/12/25 04:22:32;;;;;;;;;;;7.10;99.90;;;;;;5031300;28;19924;-91
2023/12/25 04:24:58;;;;;;;;;;;7.00;99.90;;;;;;5031492;28;19916;-91
2023/12/25 04:27:23;;;;;;;;;;;7.00;99.90;;;;;;5026749;28;19916;-92
2023/12/25 04:29:49;;;;;;;;;;;7.10;99.90;;;;;;5032866;28;19938;-91
2023/12/25 04:32:14;;;;;;;;;;;6.90;99.90;;;;;;5029571;28;19917;-92
2023/12/25 04:34:40;;;;;;;;;;;6.90;99.90;;;;;;5031441;28;20391;-92
2023/12/25 04:37:06;;;;;;;;;;;6.80;99.90;;;;;;5030960;28;19917;-90
2023/12/25 04:39:33;;;;;;;;;;;6.90;99.90;;;;;;5030165;28;19951;-89
2023/12/25 04:41:58;;;;;;;;;;;7.00;99.90;;;;;;5027083;28;19918;-88
2023/12/25 04:44:24;;;;;;;;;;;6.90;99.90;;;;;;5032700;28;19912;-90
2023/12/25 04:46:50;;;;;;;;;;;6.90;99.90;;;;;;5027416;28;19913;-88
2023/12/25 04:49:15;;;;;;;;;;;6.90;99.90;;;;;;5027270;28;19942;-89
2023/12/25 04:51:41;;;;;;;;;;;6.90;99.90;;;;;;5028408;28;19928;-89
2023/12/25 04:54:06;;;;;;;;;;;6.70;99.90;;;;;;5029940;28;20376;-90
2023/12/25 04:56:32;;;;;;;;;;;6.80;99.90;;;;;;5031260;28;19917;-89
2023/12/25 04:58:58;;;;;;;;;;;6.80;99.90;;;;;;5028944;28;19974;-88
2023/12/25 05:01:23;;;;;;;;;;;6.70;99.90;;;;;;5028199;28;19929;-89
2023/12/25 05:03:49;;;;;;;;;;;6.60;99.90;;;;;;5031045;28;19923;-92
2023/12/25 05:06:14;;;;;;;;;;;6.80;99.90;;;;;;5030474;28;20361;-91
2023/12/25 05:08:40;;;;;;;;;;;6.70;99.90;;;;;;5034434;28;19951;-91
2023/12/25 05:11:05;;;;;;;;;;;6.80;99.90;;;;;;5032616;28;19995;-92
2023/12/25 05:13:31;;;;;;;;;;;6.80;99.90;;;;;;5032397;28;19917;-91
2023/12/25 05:15:56;;;;;;;;;;;6.70;99.90;;;;;;5034453;28;19923;-92
2023/12/25 05:18:22;;;;;;;;;;;6.50;99.90;;;;;;5033677;28;19917;-92
2023/12/25 05:20:48;;;;;;;;;;;6.70;99.90;;;;;;5046468;28;19917;-93
2023/12/25 05:23:13;;;;;;;;;;;6.60;99.90;;;;;;5037435;28;20262;-92
2023/12/25 05:25:39;;;;;;;;;;;6.70;99.90;;;;;;5031349;28;19999;-93
2023/12/25 05:28:05;;;;;;;;;;;6.60;99.90;;;;;;5026068;28;19920;-93
2023/12/25 05:30:31;;;;;;;;;;;6.70;99.90;;;;;;5029112;28;19956;-93
2023/12/25 05:32:56;;;;;;;;;;;6.70;99.90;;;;;;5031190;28;19913;-94
2023/12/25 05:35:23;;;;;;;;;;;6.60;99.90;;;;;;5031621;28;20990;-93
2023/12/25 05:37:49;;;;;;;;;;;6.60;99.90;;;;;;5030692;28;19917;-93
2023/12/25 05:40:14;;;;;;;;;;;6.60;99.90;;;;;;5030156;28;19969;-92
2023/12/25 05:42:40;;;;;;;;;;;6.50;99.90;;;;;;5033529;28;20007;-94
2023/12/25 05:45:06;;;;;;;;;;;6.50;99.90;;;;;;5031323;28;19939;-92
2023/12/25 05:47:31;;;;;;;;;;;6.60;99.90;;;;;;5047278;28;19916;-92
2023/12/25 05:49:57;;;;;;;;;;;6.70;99.90;;;;;;5029814;28;20443;-92
2023/12/25 05:52:22;;;;;;;;;;;6.60;99.90;;;;;;5036403;28;19923;-92
2023/12/25 05:54:48;;;;;;;;;;;6.60;99.90;;;;;;5049577;28;19925;-91
2023/12/25 05:57:13;;;;;;;;;;;6.60;99.90;;;;;;5057240;28;19912;-93
2023/12/25 05:59:40;;;;;;;;;;;6.60;99.90;;;;;;5061898;28;19917;-93
2023/12/25 06:02:05;;;;;;;;;;;6.60;99.90;;;;;;5033921;28;19931;-94
2023/12/25 06:04:31;;;;;;;;;;;6.60;99.90;;;;;;5033009;28;19917;-95
2023/12/25 06:06:56;;;;;;;;;;;6.60;99.90;;;;;;5036946;28;19918;-93
2023/12/25 06:09:23;;;;;;;;;;;6.70;99.90;;;;;;5035378;28;20354;-93
2023/12/25 06:11:48;;;;;;;;;;;6.80;99.90;;;;;;5041434;28;20403;-92
2023/12/25 06:14:14;;;;;;;;;;;6.80;99.90;;;;;;5035570;28;19921;-92
2023/12/25 06:16:39;;;;;;;;;;;6.80;99.90;;;;;;5037382;28;20760;-91
2023/12/25 06:19:05;;;;;;;;;;;6.70;99.90;;;;;;5034278;28;20722;-93
2023/12/25 06:21:30;;;;;;;;;;;6.70;99.90;;;;;;5034954;28;20536;-91
2023/12/25 06:23:56;;;;;;;;;;;6.70;99.90;;;;;;5031137;28;20054;-91
2023/12/25 06:26:22;;;;;;;;;;;6.60;99.90;;;;;;5031460;28;19919;-93
2023/12/25 06:28:48;;;;;;;;;;;6.40;99.90;;;;;;5032687;28;20571;-90
2023/12/25 06:31:14;;;;;;;;;;;6.40;99.90;;;;;;5033401;28;19913;-91
2023/12/25 06:33:40;;;;;;;;;;;6.40;99.90;;;;;;5032991;28;19916;-91
2023/12/25 06:36:06;;;;;;;;;;;6.40;99.90;;;;;;5027688;28;19968;-91
2023/12/25 06:38:31;;;;;;;;;;;6.50;99.90;;;;;;5030006;28;19923;-91
2023/12/25 06:40:57;;;;;;;;;;;6.50;99.90;;;;;;5029576;28;19974;-90
2023/12/25 06:43:22;;;;;;;;;;;6.50;99.90;;;;;;5045291;28;20306;-89
2023/12/25 06:45:48;;;;;;;;;;;6.40;99.90;;;;;;5030903;28;19962;-87
2023/12/25 06:48:13;;;;;;;;;;;6.40;99.90;;;;;;5032527;28;19940;-89
2023/12/25 06:50:40;;;;;;;;;;;6.60;99.90;;;;;;5035596;28;19913;-89
2023/12/25 06:53:07;;;;;;;;;;;6.60;99.90;;;;;;5035412;28;19915;-89
2023/12/25 06:55:32;;;;;;;;;;;6.60;99.90;;;;;;5032941;28;19921;-89
2023/12/25 06:57:58;;;;;;;;;;;6.50;99.90;;;;;;5035234;28;19912;-91
2023/12/25 07:00:23;;;;;;;;;;;6.50;99.90;;;;;;5030437;28;19924;-89
2023/12/25 07:02:50;;;;;;;;;;;6.40;99.90;;;;;;5033435;28;20018;-88
2023/12/25 07:05:16;;;;;;;;;;;6.30;99.90;;;;;;5031623;28;19928;-88
2023/12/25 07:07:41;;;;;;;;;;;6.40;99.90;;;;;;5025017;28;19917;-88
2023/12/25 07:10:07;;;;;;;;;;;6.30;99.90;;;;;;5017741;28;19909;-88
2023/12/25 07:12:32;;;;;;;;;;;6.30;99.90;;;;;;5025779;28;19913;-87
2023/12/25 07:14:58;;;;;;;;;;;6.20;99.90;;;;;;5024671;28;19920;-85
2023/12/25 07:17:24;;;;;;;;;;;6.40;99.90;;;;;;5025964;28;19924;-82
2023/12/25 07:19:49;;;;;;;;;;;6.30;99.90;;;;;;5024959;28;20667;-87
2023/12/25 07:22:15;;;;;;;;;;;6.40;99.90;;;;;;5025803;28;19917;-86
2023/12/25 07:24:40;;;;;;;;;;;6.30;99.90;;;;;;5025403;28;19920;-87
2023/12/25 07:27:06;;;;;;;;;;;6.40;99.90;;;;;;5026171;28;19905;-87
2023/12/25 07:29:31;;;;;;;;;;;6.10;99.90;;;;;;5028209;28;19919;-88
2023/12/25 07:32:06;;;;;;;;;;;6.20;99.90;;;;;;5023491;28;20008;-85
2023/12/25 07:34:32;;;;;;;;;;;6.20;99.90;;;;;;5022019;28;19936;-86
2023/12/25 07:36:58;;;;;;;;;;;6.30;99.90;;;;;;5023205;28;20374;-86
2023/12/25 07:39:23;;;;;;;;;;;6.30;99.90;;;;;;5020900;28;20008;-83
2023/12/25 07:41:49;;;;;;;;;;;6.30;99.90;;;;;;5023114;28;19913;-85
2023/12/25 07:44:17;;;;;;;;;;;6.30;99.90;;;;;;5017742;28;20087;-84
2023/12/25 07:46:43;;;;;;;;;;;6.40;99.90;;;;;;5028789;28;19909;-85
2023/12/25 07:49:08;;;;;;;;;;;6.40;99.90;;;;;;5026792;28;19913;-83
2023/12/25 07:51:34;;;;;;;;;;;6.40;99.90;;;;;;5025328;28;19913;-84
2023/12/25 07:54:00;;;;;;;;;;;6.40;99.90;;;;;;5024008;28;19925;-86
2023/12/25 07:56:25;;;;;;;;;;;6.40;99.90;;;;;;5024358;28;19924;-85
2023/12/25 07:58:51;;;;;;;;;;;6.30;99.90;;;;;;5026253;28;19913;-83
2023/12/25 08:01:22;;;;;;;;;;;6.40;99.90;;;;;;5021110;28;19932;-88
2023/12/25 08:03:51;;;;;;;;;;;6.30;99.90;;;;;;5020706;28;20360;-89
2023/12/25 08:06:17;;;;;;;;;;;6.30;99.90;;;;;;5014997;28;20830;-87
2023/12/25 08:08:42;;;;;;;;;;;6.20;99.90;;;;;;5019409;28;19952;-88
2023/12/25 08:11:08;;;;;;;;;;;6.30;99.90;;;;;;5025929;28;19920;-88
2023/12/25 08:13:33;;;;;;;;;;;6.20;99.90;;;;;;5021585;28;20008;-87
2023/12/25 08:15:59;;;;;;;;;;;6.20;99.90;;;;;;5017149;28;20337;-89
2023/12/25 08:18:24;;;;;;;;;;;6.30;99.90;;;;;;5021680;28;20894;-88
2023/12/25 08:20:50;;;;;;;;;;;6.40;99.90;;;;;;5019558;28;20380;-89
2023/12/25 08:23:15;;;;;;;;;;;6.30;99.90;;;;;;5023068;28;19944;-89
2023/12/25 08:25:41;;;;;;;;;;;6.30;99.90;;;;;;5017523;28;20380;-85
2023/12/25 08:28:06;;;;;;;;;;;6.50;99.90;;;;;;5022576;28;19913;-88
2023/12/25 08:30:32;;;;;;;;;;;6.70;99.90;;;;;;5009725;28;19955;-88
2023/12/25 08:32:58;;;;;;;;;;;6.60;99.90;;;;;;5025110;28;20041;-85
2023/12/25 08:35:23;;;;;;;;;;;6.70;99.90;;;;;;5022573;28;19917;-85
2023/12/25 08:37:49;;;;;;;;;;;6.80;99.90;;;;;;5022508;28;19913;-85
2023/12/25 08:40:14;;;;;;;;;;;6.70;99.90;;;;;;5022712;28;19909;-86
2023/12/25 08:42:40;;;;;;;;;;;6.70;99.90;;;;;;5027767;28;19920;-85
2023/12/25 08:45:07;;;;;;;;;;;6.80;99.90;;;;;;5021320;28;19917;-85
2023/12/25 08:47:33;;;;;;;;;;;6.80;99.90;;;;;;5038193;28;19974;-85
2023/12/25 08:49:58;;;;;;;;;;;6.80;99.90;;;;;;5020362;28;19913;-85
2023/12/25 08:52:24;;;;;;;;;;;6.90;99.90;;;;;;5023062;28;20427;-85
2023/12/25 08:54:50;;;;;;;;;;;6.80;99.90;;;;;;5022953;28;19924;-85
2023/12/25 08:57:15;;;;;;;;;;;7.00;99.90;;;;;;5041350;28;19992;-85
2023/12/25 08:59:41;;;;;;;;;;;7.00;99.90;;;;;;5021870;28;19943;-85
2023/12/25 09:02:06;;;;;;;;;;;7.00;99.90;;;;;;5018610;28;19925;-85
2023/12/25 09:04:32;;;;;;;;;;;6.50;99.90;;;;;;5018048;28;19920;-85
2023/12/25 09:06:58;;;;;;;;;;;6.60;99.90;;;;;;5021593;28;19920;-85
2023/12/25 09:09:24;;;;;;;;;;;6.60;99.90;;;;;;5025665;28;19920;-85
2023/12/25 09:11:50;;;;;;;;;;;6.80;99.90;;;;;;5023619;28;19956;-85
2023/12/25 09:14:15;;;;;;;;;;;6.80;99.90;;;;;;5025234;28;20008;-85
2023/12/25 09:16:41;;;;;;;;;;;6.90;99.90;;;;;;5024056;28;19921;-87
2023/12/25 09:19:06;;;;;;;;;;;7.10;99.90;;;;;;5021915;28;19919;-87
2023/12/25 09:21:36;;;;;;;;;;;7.30;99.90;;;;;;5022651;28;19913;-87
2023/12/25 09:24:02;;;;;;;;;;;7.30;99.90;;;;;;5022678;28;19924;-87
2023/12/25 09:26:27;;;;;;;;;;;7.30;99.90;;;;;;5020032;28;19917;-86
2023/12/25 09:28:53;;;;;;;;;;;7.40;99.90;;;;;;5019831;28;19959;-87
2023/12/25 09:31:18;;;;;;;;;;;7.30;99.90;;;;;;5020643;28;20178;-87
2023/12/25 09:33:44;;;;;;;;;;;7.00;99.90;;;;;;5025230;28;20530;-87
2023/12/25 09:36:10;;;;;;;;;;;6.80;99.90;;;;;;5024739;28;19921;-87
2023/12/25 09:38:36;;;;;;;;;;;7.10;99.90;;;;;;5039809;28;19912;-88
2023/12/25 09:41:01;;;;;;;;;;;7.30;99.90;;;;;;5040811;28;19924;-90
2023/12/25 09:43:27;;;;;;;;;;;7.50;99.90;;;;;;5025415;28;19920;-89
2023/12/25 09:45:53;;;;;;;;;;;7.50;99.90;;;;;;5022989;28;20639;-88
2023/12/25 09:48:19;;;;;;;;;;;7.40;99.90;;;;;;5028114;28;19952;-87
2023/12/25 09:50:45;;;;;;;;;;;7.30;99.90;;;;;;5030604;28;20315;-89
2023/12/25 09:53:11;;;;;;;;;;;7.40;99.90;;;;;;5020521;28;20446;-87
2023/12/25 09:55:37;;;;;;;;;;;7.60;99.90;;;;;;5024481;28;19916;-89
2023/12/25 09:58:07;;;;;;;;;;;7.70;99.90;;;;;;5027381;28;19919;-89
2023/12/25 10:00:33;;;;;;;;;;;7.70;99.90;;;;;;5021962;28;20304;-88
2023/12/25 10:03:00;;;;;;;;;;;7.80;99.90;;;;;;5027861;28;19920;-88
2023/12/25 10:05:26;;;;;;;;;;;7.80;99.90;;;;;;5024561;28;20447;-88
2023/12/25 10:07:52;;;;;;;;;;;7.70;99.90;;;;;;5029309;28;19917;-87
2023/12/25 10:10:20;;;;;;;;;;;7.60;99.90;;;;;;5029450;28;19909;-87
2023/12/25 10:12:46;;;;;;;;;;;7.50;99.90;;;;;;5026607;28;20012;-88
2023/12/25 10:15:12;;;;;;;;;;;7.40;99.90;;;;;;5024320;28;19921;-88
2023/12/25 10:17:38;;;;;;;;;;;7.60;99.90;;;;;;5025063;28;20285;-88
2023/12/25 10:20:04;;;;;;;;;;;7.60;99.90;;;;;;5030132;28;19917;-88
2023/12/25 10:22:39;;;;;;;;;;;7.70;99.90;;;;;;5021713;28;19975;-88
2023/12/25 10:25:09;;;;;;;;;;;7.60;99.90;;;;;;5042018;28;19960;-88
2023/12/25 10:27:39;;;;;;;;;;;7.80;99.90;;;;;;5018424;28;19917;-90
2023/12/25 10:30:14;;;;;;;;;;;7.60;99.90;;;;;;5022631;28;19913;-89
2023/12/25 10:32:41;;;;;;;;;;;7.80;99.90;;;;;;5023124;28;19912;-88
2023/12/25 10:35:10;;;;;;;;;;;7.90;99.90;;;;;;5024593;28;19995;-83
2023/12/25 10:37:40;;;;;;;;;;;7.90;99.90;;;;;;5017516;28;20003;-85
2023/12/25 10:40:26;;;;;;;;;;;8.20;99.90;;;;;;5024302;28;19956;-87
2023/12/25 10:42:53;;;;;;;;;;;8.20;99.90;;;;;;5019568;28;19939;-87
2023/12/25 10:45:24;;;;;;;;;;;8.40;99.90;;;;;;5019229;28;19923;-85
2023/12/25 10:47:51;;;;;;;;;;;8.40;99.90;;;;;;5028233;28;19912;-85
2023/12/25 10:50:18;;;;;;;;;;;8.30;99.90;;;;;;5018122;28;19974;-84
2023/12/25 10:52:47;;;;;;;;;;;8.30;99.90;;;;;;5026494;28;20020;-85
2023/12/25 10:55:15;;;;;;;;;;;8.40;99.90;;;;;;5019205;28;19917;-85
2023/12/25 10:57:41;;;;;;;;;;;8.40;99.90;;;;;;5023528;28;19917;-87
2023/12/25 11:00:10;;;;;;;;;;;8.30;99.90;;;;;;5024201;28;19913;-85
2023/12/25 11:02:38;;;;;;;;;;;8.00;99.90;;;;;;5024240;28;19987;-85
2023/12/25 11:05:04;;;;;;;;;;;8.10;99.90;;;;;;5021471;28;20028;-86
2023/12/25 11:07:30;;;;;;;;;;;8.20;99.90;;;;;;5021398;28;20391;-89
2023/12/25 11:09:55;;;;;;;;;;;8.20;99.90;;;;;;5038664;28;19913;-90
2023/12/25 11:12:21;;;;;;;;;;;8.10;99.90;;;;;;5025231;28;19913;-83
2023/12/25 11:14:47;;;;;;;;;;;8.00;99.90;;;;;;5023466;28;20405;-86
2023/12/25 11:17:13;;;;;;;;;;;8.10;99.90;;;;;;5024136;28;19979;-86
2023/12/25 11:19:38;;;;;;;;;;;8.10;99.90;;;;;;5018986;28;19920;-85
2023/12/25 11:22:23;;;;;;;;;;;8.20;99.90;;;;;;5019643;28;20334;-85
2023/12/25 11:24:48;;;;;;;;;;;8.20;99.90;;;;;;5021639;28;19913;-87
2023/12/25 11:27:17;;;;;;;;;;;8.30;99.90;;;;;;5020258;28;19940;-85
2023/12/25 11:29:42;;;;;;;;;;;8.40;99.90;;;;;;5021442;28;19913;-86
2023/12/25 11:32:08;;;;;;;;;;;8.40;99.80;;;;;;5017488;28;19906;-86
2023/12/25 11:34:38;;;;;;;;;;;8.10;99.90;;;;;;5023415;28;19917;-86
2023/12/25 11:37:16;;;;;;;;;;;7.70;99.90;;;;;;5022951;28;19916;-85
2023/12/25 11:39:51;;;;;;;;;;;8.00;99.90;;;;;;5022062;28;19920;-85
2023/12/25 11:42:17;;;;;;;;;;;8.10;99.80;;;;;;5023702;28;20738;-84
2023/12/25 11:44:43;;;;;;;;;;;8.30;99.40;;;;;;5020720;28;20699;-86
2023/12/25 11:47:10;;;;;;;;;;;8.20;99.30;;;;;;5023009;28;19913;-85
2023/12/25 11:49:39;;;;;;;;;;;8.20;99.20;;;;;;5022593;28;20411;-85
2023/12/25 11:52:04;;;;;;;;;;;7.90;98.80;;;;;;5015231;28;19912;-85
2023/12/25 11:54:30;;;;;;;;;;;8.00;99.30;;;;;;5014514;28;20486;-86
2023/12/25 11:57:02;;;;;;;;;;;8.10;99.40;;;;;;5017091;28;19917;-87
2023/12/25 11:59:28;;;;;;;;;;;8.20;99.40;;;;;;5021114;28;19914;-85
2023/12/25 12:01:54;;;;;;;;;;;8.30;99.30;;;;;;5024420;28;20830;-85
2023/12/25 12:04:20;;;;;;;;;;;8.20;98.40;;;;;;5016067;28;19914;-86
2023/12/25 12:06:46;;;;;;;;;;;8.00;98.60;;;;;;5021328;28;19966;-85
2023/12/25 12:09:11;;;;;;;;;;;8.10;98.50;;;;;;5013986;28;19925;-86
2023/12/25 12:11:37;;;;;;;;;;;8.30;98.80;;;;;;5019947;28;19920;-86
2023/12/25 12:14:04;;;;;;;;;;;8.50;98.70;;;;;;5015946;28;19917;-86
2023/12/25 12:16:29;;;;;;;;;;;8.70;98.50;;;;;;5018170;28;19924;-86
2023/12/25 12:18:55;;;;;;;;;;;8.50;98.00;;;;;;5019586;28;19913;-87
2023/12/25 12:21:20;;;;;;;;;;;8.50;98.10;;;;;;5015859;28;20688;-87
2023/12/25 12:23:47;;;;;;;;;;;8.50;97.90;;;;;;5015913;28;19920;-86
2023/12/25 12:26:16;;;;;;;;;;;8.20;98.00;;;;;;5015104;28;20416;-87
2023/12/25 12:28:42;;;;;;;;;;;8.20;98.30;;;;;;5017834;28;20391;-86
2023/12/25 12:31:08;;;;;;;;;;;8.10;98.30;;;;;;5016908;28;19959;-87
2023/12/25 12:33:33;;;;;;;;;;;7.70;98.90;;;;;;5038504;28;20203;-86
2023/12/25 12:36:02;;;;;;;;;;;7.60;99.60;;;;;;5024132;28;19948;-87
2023/12/25 12:38:27;;;;;;;;;;;7.60;99.50;;;;;;5021421;28;20384;-86
2023/12/25 12:40:53;;;;;;;;;;;7.80;99.20;;;;;;5036924;28;19912;-86
2023/12/25 12:43:19;;;;;;;;;;;7.90;99.30;;;;;;5022464;28;19913;-86
2023/12/25 12:45:45;;;;;;;;;;;7.90;99.20;;;;;;5025913;28;20032;-84
2023/12/25 12:48:11;;;;;;;;;;;8.10;99.30;;;;;;5030730;28;20034;-86
2023/12/25 12:50:36;;;;;;;;;;;7.90;98.20;;;;;;5016755;28;20028;-87
2023/12/25 12:53:02;;;;;;;;;;;8.00;99.40;;;;;;5021605;28;19909;-86
2023/12/25 12:55:28;;;;;;;;;;;8.30;99.50;;;;;;5020267;28;19921;-86
2023/12/25 12:57:53;;;;;;;;;;;8.40;99.40;;;;;;5025838;28;20376;-88
2023/12/25 13:00:19;;;;;;;;;;;8.40;99.40;;;;;;5021282;28;19968;-87
2023/12/25 13:02:46;;;;;;;;;;;8.50;99.50;;;;;;5022564;28;19921;-87
2023/12/25 13:05:12;;;;;;;;;;;8.60;99.80;;;;;;5029024;28;20004;-87
2023/12/25 13:07:37;;;;;;;;;;;8.50;99.80;;;;;;5026988;28;19919;-86
2023/12/25 13:10:03;;;;;;;;;;;8.20;99.80;;;;;;5020252;28;20448;-85
2023/12/25 13:12:28;;;;;;;;;;;8.10;99.90;;;;;;5023931;28;19920;-86
2023/12/25 13:14:54;;;;;;;;;;;8.30;99.90;;;;;;5023410;28;19917;-85
2023/12/25 13:17:20;;;;;;;;;;;8.00;99.90;;;;;;5021551;28;20555;-85
2023/12/25 13:19:45;;;;;;;;;;;7.70;99.90;;;;;;5024620;28;19924;-85
2023/12/25 13:22:11;;;;;;;;;;;7.50;99.90;;;;;;5022832;28;20095;-85
2023/12/25 13:24:36;;;;;;;;;;;7.50;99.90;;;;;;5020708;28;19917;-85
2023/12/25 13:27:05;;;;;;;;;;;7.40;99.90;;;;;;5022802;28;20550;-87
2023/12/25 13:29:31;;;;;;;;;;;7.50;99.90;;;;;;5020906;28;19913;-85
2023/12/25 13:31:56;;;;;;;;;;;7.30;99.90;;;;;;5023137;28;19913;-86
2023/12/25 13:34:24;;;;;;;;;;;7.20;99.90;;;;;;5022524;28;19936;-86
2023/12/25 13:36:49;;;;;;;;;;;7.00;99.90;;;;;;5022355;28;19924;-86
2023/12/25 13:39:15;;;;;;;;;;;6.80;99.90;;;;;;5022154;28;19913;-86
2023/12/25 13:41:41;;;;;;;;;;;6.80;99.90;;;;;;5022293;28;19920;-86
2023/12/25 13:44:06;;;;;;;;;;;6.80;99.90;;;;;;5021196;28;19913;-85
2023/12/25 13:46:32;;;;;;;;;;;6.70;99.90;;;;;;5018561;28;19917;-86
2023/12/25 13:48:58;;;;;;;;;;;6.70;99.90;;;;;;5022059;28;19910;-85
2023/12/25 13:51:24;;;;;;;;;;;6.70;99.90;;;;;;5022528;28;19913;-84
2023/12/25 13:53:49;;;;;;;;;;;6.60;99.90;;;;;;5022589;28;19921;-86
2023/12/25 13:56:15;;;;;;;;;;;6.60;99.90;;;;;;5025727;28;19925;-84
2023/12/25 13:58:41;;;;;;;;;;;6.60;99.90;;;;;;5019483;28;20446;-84
2023/12/25 14:01:06;;;;;;;;;;;6.50;99.90;;;;;;5020436;28;20459;-85
2023/12/25 14:03:32;;;;;;;;;;;6.50;99.90;;;;;;5022633;28;19912;-86
2023/12/25 14:05:58;;;;;;;;;;;6.40;99.90;;;;;;5023097;28;19940;-84
2023/12/25 14:08:23;;;;;;;;;;;6.50;99.90;;;;;;5022012;28;20343;-85
2023/12/25 14:10:49;;;;;;;;;;;6.50;99.90;;;;;;5020514;28;19912;-85
2023/12/25 14:13:14;;;;;;;;;;;6.50;99.90;;;;;;5021419;28;20003;-86
2023/12/25 14:15:40;;;;;;;;;;;6.50;99.90;;;;;;5021872;28;19923;-85
2023/12/25 14:18:06;;;;;;;;;;;6.40;99.90;;;;;;5023504;28;19956;-85
2023/12/25 14:20:31;;;;;;;;;;;6.40;99.90;;;;;;5027279;28;20708;-85
2023/12/25 14:22:57;;;;;;;;;;;6.30;99.90;;;;;;5029136;28;20391;-86